Latest Weather Observations for Trangie

IDN60801

Issued at 11:35 pm EDT Monday 20 October 2014 (issued every 30 minutes, with the page automatically refreshed every 10 minutes)

About weather observations | Map of weather stations | Latest weather observations for NSW | Other Formats
Station Details ID: 051049 Name: TRANGIE RESEARCH STATION AWS Lat: -31.99 Lon: 147.95 Height: 215.0 m
Data from the previous 72 hours. | See also: Recent months at Trangie
Date/Time
EDT
Temp
°C
App
Temp
°C
Dew
Point
Rel
Hum
%
Delta-T
°C
Wind Press
QNH
hPa
Press
MSL
hPa
Rain
since 9 am
mm
Dir
 
Spd
km/h
Gust
km/h
Spd
kts
Gust
kts
20/11:30pm 18.8 14.8 10.4 58 4.5 E 22 35 12 19 1024.5 1024.0 0.0
20/11:00pm 18.9 15.1 9.9 56 4.8 E 20 39 11 21 1024.5 1024.0 0.0
20/10:30pm 19.3 15.1 9.8 54 5.1 E 22 39 12 21 1024.3 1023.8 0.0
20/10:00pm 19.7 15.9 9.9 53 5.3 E 20 32 11 17 1024.1 1023.6 0.0
20/09:30pm 20.5 16.0 10.0 51 5.7 E 24 37 13 20 1023.9 1023.4 0.0
20/09:00pm 21.6 18.1 10.1 48 6.3 E 19 32 10 17 1023.5 1023.0 0.0
20/08:30pm 23.5 19.4 10.2 43 7.4 E 22 33 12 18 1022.8 1022.4 0.0
20/08:00pm 25.2 21.4 9.9 38 8.5 E 20 33 11 18 1022.3 1021.9 0.0
20/07:30pm 27.2 23.3 9.5 33 9.9 E 20 35 11 19 1021.6 1021.2 0.0
20/07:00pm 29.2 25.0 8.3 27 11.5 E 20 32 11 17 1021.1 1020.7 0.0
20/06:30pm 31.4 28.4 0.7 14 15.1 ESE 6 9 3 5 1020.8 1020.3 0.0
20/06:00pm 32.9 29.7 -0.2 12 16.2 S 6 15 3 8 1020.6 1020.1 0.0
20/05:30pm 33.0 28.9 -0.2 12 16.3 SSE 11 20 6 11 1020.7 1020.2 0.0
20/05:00pm 33.3 29.6 0.1 12 16.4 ESE 9 17 5 9 1020.7 1020.2 0.0
20/04:30pm 33.4 30.3 1.3 13 16.2 SW 7 13 4 7 1020.7 1020.2 0.0
20/04:00pm 33.0 29.4 0.9 13 16.0 SSE 9 19 5 10 1021.0 1020.6 0.0
20/03:30pm 33.6 29.4 1.4 13 16.3 E 13 24 7 13 1021.2 1020.8 0.0
20/03:00pm 33.7 30.4 0.4 12 16.5 W 7 15 4 8 1021.6 1021.2 0.0
20/02:30pm 33.6 30.3 0.3 12 16.5 W 7 13 4 7 1022.1 1021.7 0.0
20/02:00pm 32.8 28.3 -0.3 12 16.1 SSE 13 19 7 10 1022.6 1022.2 0.0
20/01:30pm 32.9 29.9 0.9 13 16.0 SSW 6 19 3 10 1023.1 1022.6 0.0
20/01:00pm 32.6 29.6 1.7 14 15.5 NE 7 13 4 7 1023.5 1023.0 0.0
20/12:30pm 32.3 28.2 2.4 15 15.2 WSW 13 19 7 10 1023.8 1023.3 0.0
20/12:00pm 31.2 27.9 2.4 16 14.5 WNW 9 15 5 8 1024.5 1024.0 0.0
20/11:30am 31.2 28.2 4.1 18 14.1 WNW 9 19 5 10 1024.7 1024.2 0.0
20/11:00am 29.5 26.3 4.9 21 12.8 NW 11 17 6 9 1025.1 1024.7 0.0
20/10:30am 28.7 25.8 4.9 22 12.4 NW 9 17 5 9 1025.2 1024.8 0.0
20/10:00am 27.1 24.7 5.4 25 11.2 NNW 7 13 4 7 1025.4 1025.0 0.0
20/09:30am 25.3 22.7 6.0 29 10.0 N 9 13 5 7 1025.5 1025.1 0.0
20/09:00am 23.5 21.2 5.9 32 9.0 NE 7 9 4 5 1025.4 1025.0 0.0
20/08:30am 21.7 19.6 6.0 36 7.9 ENE 6 9 3 5 1025.0 1024.6 0.0
20/08:00am 19.3 16.7 6.1 42 6.6 ENE 9 11 5 6 1024.7 1024.2 0.0
20/07:30am 16.5 14.3 6.3 51 5.0 ENE 7 9 4 5 1024.2 1023.7 0.0
20/07:00am 14.2 12.0 5.3 55 4.2 ENE 6 7 3 4 1023.9 1023.4 0.0
20/06:30am 14.5 11.8 5.6 55 4.3 E 9 11 5 6 1023.7 1023.2 0.0
20/06:00am 13.6 11.3 5.5 58 3.8 E 7 9 4 5 1023.4 1022.9 0.0
20/05:30am 13.5 11.3 5.4 58 3.8 E 6 7 3 4 1023.1 1022.6 0.0
20/05:00am 13.5 11.2 5.9 60 3.6 E 7 9 4 5 1022.7 1022.3 0.0
20/04:30am 12.7 10.3 5.1 60 3.6 E 7 9 4 5 1022.6 1022.2 0.0
20/04:00am 13.2 12.1 5.1 58 3.8 CALM 0 0 0 0 1022.6 1022.2 0.0
20/03:30am 12.9 10.5 4.3 56 4.0 E 6 7 3 4 1022.6 1022.2 0.0
20/03:00am 14.7 12.3 4.4 50 4.8 ENE 6 9 3 5 1022.6 1022.2 0.0
20/02:30am 14.9 12.1 5.1 52 4.7 ENE 9 11 5 6 1023.1 1022.6 0.0
20/02:00am 14.4 12.0 4.4 51 4.7 ENE 6 7 3 4 1023.2 1022.7 0.0
20/01:30am 16.0 13.5 4.7 47 5.4 NE 7 9 4 5 1023.5 1023.0 0.0
20/01:00am 15.8 14.3 5.1 49 5.1 ENE 2 9 1 5 1023.8 1023.3 0.0
20/12:30am 16.2 14.3 4.9 47 5.4 E 4 6 2 3 1024.0 1023.5 0.0
20/12:00am 15.7 14.4 4.1 46 5.4 ENE 0 0 0 0 1024.1 1023.6 0.0
 
Date/Time
EDT
Temp
°C
App
Temp
°C
Dew
Point
Rel
Hum
%
Delta-T
°C
Wind Press
QNH
hPa
Press
MSL
hPa
Rain
since 9 am
mm
Dir
 
Spd
km/h
Gust
km/h
Spd
kts
Gust
kts
19/11:30pm 16.5 15.3 4.5 45 5.7 CALM 0 0 0 0 1023.9 1023.4 0.0
19/11:00pm 18.2 15.7 4.7 41 6.5 ENE 7 9 4 5 1023.9 1023.4 0.0
19/10:30pm 17.6 16.3 4.2 41 6.4 CALM 0 0 0 0 1023.9 1023.4 0.0
19/10:00pm 18.9 17.6 4.3 38 7.0 CALM 0 0 0 0 1023.9 1023.4 0.0
19/09:30pm 20.1 18.8 4.2 35 7.7 CALM 0 0 0 0 1023.8 1023.3 0.0
19/09:00pm 20.6 19.2 3.8 33 8.1 CALM 0 0 0 0 1023.6 1023.1 0.0
19/08:30pm 21.5 20.1 3.7 31 8.6 CALM 0 0 0 0 1023.3 1022.8 0.0
19/08:00pm 23.1 21.7 3.6 28 9.5 CALM 0 0 0 0 1022.9 1022.5 0.0
19/07:30pm 24.9 23.5 3.5 25 10.6 CALM 0 0 0 0 1022.6 1022.2 0.0
19/07:00pm 27.6 26.2 3.3 21 12.2 CALM 0 0 0 0 1022.2 1021.8 0.0
19/06:30pm 29.2 27.6 2.5 18 13.4 CALM 0 0 0 0 1021.9 1021.5 0.0
19/06:00pm 29.3 26.0 2.5 18 13.4 N 9 13 5 7 1021.8 1021.4 0.0
19/05:30pm 30.7 27.9 2.9 17 14.2 W 7 15 4 8 1021.7 1021.3 0.0
19/05:00pm 30.2 26.9 2.5 17 13.9 W 9 15 5 8 1021.7 1021.3 0.0
19/04:30pm 29.7 26.9 2.1 17 13.8 NNW 6 9 3 5 1021.9 1021.5 0.0
19/04:00pm 30.0 27.2 3.1 18 13.6 N 7 13 4 7 1022.2 1021.8 0.0
19/03:30pm 29.4 26.7 2.6 18 13.5 SE 6 11 3 6 1022.5 1022.1 0.0
19/03:00pm 30.0 27.4 3.1 18 13.6 N 6 15 3 8 1023.1 1022.6 0.0
19/02:30pm 28.9 25.3 3.0 19 13.1 NW 11 20 6 11 1023.6 1023.1 0.0
19/02:00pm 28.5 24.6 3.4 20 12.7 N 13 19 7 10 1024.1 1023.6 0.0
19/01:30pm 28.3 24.9 3.9 21 12.4 NW 11 19 6 10 1024.5 1024.0 0.0
19/01:00pm 27.8 24.8 4.2 22 12.0 E 9 20 5 11 1024.9 1024.5 0.0
19/12:30pm 26.6 23.3 4.4 24 11.3 N 11 20 6 11 1025.3 1024.9 0.0
19/12:00pm 26.4 22.6 5.9 27 10.7 NNW 15 26 8 14 1025.7 1025.3 0.0
19/11:30am 25.7 21.2 6.3 29 10.2 NNW 19 24 10 13 1026.3 1025.9 0.0
19/11:00am 24.9 21.3 6.6 31 9.5 NNE 15 26 8 14 1026.6 1026.2 0.0
19/10:30am 24.2 20.8 7.8 35 8.7 NNE 15 22 8 12 1027.2 1026.8 0.0
19/10:00am 22.9 19.5 7.8 38 7.9 NNE 15 22 8 12 1027.5 1027.1 0.0
19/09:30am 21.2 17.5 7.8 42 7.0 NNE 17 24 9 13 1027.6 1027.2 0.0
19/09:00am 19.4 16.4 7.5 46 6.1 NE 13 20 7 11 1027.7 1027.3 0.0
19/08:30am 17.4 14.8 7.7 53 5.0 NE 11 17 6 9 1027.7 1027.3 0.0
19/08:00am 15.5 12.6 8.0 61 3.8 E 13 20 7 11 1027.1 1026.7 0.0
19/07:30am 13.9 10.9 7.7 66 3.1 E 13 20 7 11 1026.6 1026.2 0.0
19/07:00am 12.3 10.0 7.6 73 2.3 E 9 17 5 9 1026.1 1025.7 0.0
19/06:30am 11.4 8.6 7.1 75 2.1 E 11 17 6 9 1025.7 1025.3 0.0
19/06:00am 11.2 8.7 6.7 74 2.1 E 9 15 5 8 1025.4 1025.0 0.0
19/05:30am 11.3 8.8 6.4 72 2.3 E 9 13 5 7 1025.2 1024.8 0.0
19/05:00am 10.9 8.3 5.9 71 2.3 ESE 9 11 5 6 1025.3 1024.9 0.0
19/04:30am 12.1 9.5 5.9 66 2.9 ESE 9 15 5 8 1025.1 1024.7 0.0
19/04:00am 13.1 10.1 6.2 63 3.3 E 11 15 6 8 1025.0 1024.6 0.0
19/03:30am 13.1 10.5 6.2 63 3.3 E 9 17 5 9 1025.2 1024.8 0.0
19/03:00am 12.4 9.5 4.9 60 3.5 ESE 9 13 5 7 1025.3 1024.9 0.0
19/02:30am 12.7 10.1 4.4 57 3.8 E 7 13 4 7 1025.3 1024.9 0.0
19/02:00am 13.6 10.7 4.5 54 4.2 E 9 11 5 6 1025.4 1025.0 0.0
19/01:30am 13.8 10.8 4.1 52 4.5 E 9 11 5 6 1025.8 1025.4 0.0
19/01:00am 14.6 11.6 4.3 50 4.8 ESE 9 11 5 6 1025.9 1025.5 0.0
19/12:30am 13.9 11.2 3.7 50 4.7 E 7 11 4 6 1025.9 1025.5 0.0
19/12:00am 14.7 11.9 3.2 46 5.2 E 7 11 4 6 1025.8 1025.4 0.0
 
Date/Time
EDT
Temp
°C
App
Temp
°C
Dew
Point
Rel
Hum
%
Delta-T
°C
Wind Press
QNH
hPa
Press
MSL
hPa
Rain
since 9 am
mm
Dir
 
Spd
km/h
Gust
km/h
Spd
kts
Gust
kts
18/11:30pm 15.4 12.9 3.5 45 5.5 E 6 7 3 4 1025.8 1025.4 0.0
18/11:00pm 16.8 13.7 3.8 42 6.1 E 9 11 5 6 1025.7 1025.3 0.0
18/10:30pm 16.0 13.4 3.1 42 5.9 E 6 9 3 5 1025.8 1025.4 0.0
18/10:00pm 16.2 14.1 1.9 38 6.4 ESE 2 6 1 3 1025.9 1025.5 0.0
18/09:30pm 17.0 14.9 1.8 36 6.9 E 2 9 1 5 1025.7 1025.3 0.0
18/09:00pm 17.3 15.5 1.3 34 7.1 CALM 0 6 0 3 1025.4 1025.0 0.0
18/08:30pm 18.0 16.2 1.1 32 7.6 CALM 0 0 0 0 1025.0 1024.6 0.0
18/08:00pm 19.2 17.3 0.8 29 8.3 CALM 0 0 0 0 1024.6 1024.1 0.0
18/07:30pm 20.8 18.9 0.6 26 9.2 CALM 0 0 0 0 1024.2 1023.7 0.0
18/07:00pm 23.2 19.9 -1.0 20 10.8 SE 6 9 3 5 1023.9 1023.4 0.0
18/06:30pm 24.9 21.5 -0.3 19 11.6 ESE 7 13 4 7 1023.7 1023.2 0.0
18/06:00pm 25.5 21.5 0.2 19 11.8 ESE 11 17 6 9 1023.5 1023.0 0.0
18/05:30pm 25.6 22.1 -1.2 17 12.2 E 7 13 4 7 1023.4 1022.9 0.0
18/05:00pm 26.2 22.9 0.0 18 12.2 SSE 7 13 4 7 1023.3 1022.8 0.0
18/04:30pm 26.2 22.1 0.0 18 12.3 S 11 15 6 8 1023.5 1023.0 0.0
18/04:00pm 25.7 22.2 1.1 20 11.7 SSE 9 20 5 11 1023.7 1023.2 0.0
18/03:30pm 26.1 22.5 0.7 19 12.1 E 9 19 5 10 1024.1 1023.6 0.0
18/03:00pm 25.3 21.6 0.0 19 11.7 NNE 9 17 5 9 1024.5 1024.0 0.0
18/02:30pm 25.4 21.9 1.5 21 11.5 NE 9 15 5 8 1024.8 1024.3 0.0
18/02:00pm 25.7 22.4 2.4 22 11.3 SSE 9 19 5 10 1025.4 1025.0 0.0
18/01:30pm 24.9 20.9 3.0 24 10.8 E 13 20 7 11 1025.7 1025.3 0.0
18/01:00pm 24.1 20.9 2.9 25 10.3 N 9 13 5 7 1026.2 1025.8 0.0
18/12:30pm 23.4 20.4 3.9 28 9.6 NW 9 19 5 10 1026.7 1026.3 0.0
18/12:00pm 22.6 18.4 3.7 29 9.2 E 15 24 8 13 1027.3 1026.9 0.0
18/11:30am 22.2 18.5 4.7 32 8.7 ENE 13 19 7 10 1027.7 1027.3 0.0
18/11:00am 21.3 17.9 6.0 37 7.7 ENE 13 20 7 11 1028.0 1027.5 0.0
18/10:30am 20.6 17.4 6.9 41 7.0 ENE 13 22 7 12 1028.5 1028.0 0.0
18/10:00am 19.5 16.1 7.6 46 6.1 E 15 26 8 14 1028.3 1027.8 0.0
18/09:30am 17.7 13.6 8.0 53 5.0 E 19 28 10 15 1028.0 1027.5 0.0
18/09:00am 16.8 12.6 8.2 57 4.4 E 20 28 11 15 1028.1 1027.6 0.0
18/08:30am 15.4 11.4 8.4 63 3.6 E 19 33 10 18 1027.7 1027.3 0.0
18/08:00am 14.1 9.9 8.3 68 2.9 E 20 32 11 17 1027.5 1027.1 0.0
18/07:30am 12.9 9.3 8.2 73 2.4 E 17 26 9 14 1027.2 1026.8 0.0
18/07:00am 11.7 8.8 8.0 78 1.8 E 13 19 7 10 1026.8 1026.4 0.0
18/06:30am 11.2 8.2 7.9 80 1.6 E 13 20 7 11 1026.6 1026.2 0.0
18/06:00am 11.2 8.6 7.9 80 1.6 E 11 17 6 9 1026.1 1025.7 0.0
18/05:30am 11.4 8.4 7.7 78 1.8 E 13 20 7 11 1025.8 1025.4 0.0
18/05:00am 11.5 8.9 7.6 77 1.9 E 11 19 6 10 1025.7 1025.3 0.0
18/04:30am 11.7 9.0 7.4 75 2.1 E 11 17 6 9 1025.6 1025.2 0.0
18/04:00am 11.8 9.1 7.3 74 2.2 E 11 19 6 10 1025.5 1025.1 0.0
18/03:30am 12.1 9.0 7.4 73 2.3 E 13 17 7 9 1025.5 1025.1 0.0
18/03:00am 12.4 9.4 7.5 72 2.4 E 13 20 7 11 1025.3 1024.9 0.0
18/02:30am 12.6 9.9 7.5 71 2.5 E 11 20 6 11 1025.3 1024.9 0.0
18/02:00am 13.0 10.3 7.5 69 2.7 E 11 15 6 8 1025.4 1025.0 0.0
18/01:30am 13.5 11.2 7.3 66 3.1 ESE 9 17 5 9 1025.4 1025.0 0.0
18/01:00am 14.6 11.2 7.6 63 3.5 E 15 22 8 12 1025.5 1025.1 0.0
18/12:30am 14.6 11.1 7.2 61 3.7 E 15 22 8 12 1025.4 1025.0 0.0
18/12:00am 12.2 9.4 3.2 54 4.0 SE 7 11 4 6 1025.2 1024.8 0.0

Other Formats:

Comma delimited format used in spreadsheet applications
http://www.bom.gov.au/fwo/IDN60801/IDN60801.95710.axf

JavaScript Object Notation format (JSON) in row-major order
http://www.bom.gov.au/fwo/IDN60801/IDN60801.95710.json